sensor_id;sensor_type;location;lat;lon;timestamp;temperature;humidity
9393;DHT22;4736;52.508;13.422;2023-10-08T00:01:35;11.30;84.80
9393;DHT22;4736;52.508;13.422;2023-10-08T00:04:43;11.30;84.70
9393;DHT22;4736;52.508;13.422;2023-10-08T00:07:46;11.30;84.60
9393;DHT22;4736;52.508;13.422;2023-10-08T00:10:56;11.30;84.60
9393;DHT22;4736;52.508;13.422;2023-10-08T00:14:05;11.30;84.70
9393;DHT22;4736;52.508;13.422;2023-10-08T00:17:12;11.30;84.80
9393;DHT22;4736;52.508;13.422;2023-10-08T00:20:15;11.30;84.50
9393;DHT22;4736;52.508;13.422;2023-10-08T00:23:27;11.30;84.70
9393;DHT22;4736;52.508;13.422;2023-10-08T00:26:34;11.40;84.70
9393;DHT22;4736;52.508;13.422;2023-10-08T00:29:42;11.30;84.40
9393;DHT22;4736;52.508;13.422;2023-10-08T00:32:46;11.30;84.50
9393;DHT22;4736;52.508;13.422;2023-10-08T00:35:49;11.30;84.50
9393;DHT22;4736;52.508;13.422;2023-10-08T00:38:52;11.30;84.50
9393;DHT22;4736;52.508;13.422;2023-10-08T00:41:58;11.30;84.50
9393;DHT22;4736;52.508;13.422;2023-10-08T00:45:02;11.30;84.40
9393;DHT22;4736;52.508;13.422;2023-10-08T00:48:07;11.30;84.50
9393;DHT22;4736;52.508;13.422;2023-10-08T00:51:13;11.30;84.50
9393;DHT22;4736;52.508;13.422;2023-10-08T00:54:28;11.30;84.50
9393;DHT22;4736;52.508;13.422;2023-10-08T00:57:36;11.30;84.50
9393;DHT22;4736;52.508;13.422;2023-10-08T01:00:44;11.30;84.50
9393;DHT22;4736;52.508;13.422;2023-10-08T01:03:49;11.30;84.30
9393;DHT22;4736;52.508;13.422;2023-10-08T01:06:54;11.30;84.40
9393;DHT22;4736;52.508;13.422;2023-10-08T01:10:04;11.30;84.20
9393;DHT22;4736;52.508;13.422;2023-10-08T01:13:13;11.20;84.30
9393;DHT22;4736;52.508;13.422;2023-10-08T01:16:23;11.20;84.20
9393;DHT22;4736;52.508;13.422;2023-10-08T01:19:28;11.10;84.00
9393;DHT22;4736;52.508;13.422;2023-10-08T01:22:35;11.10;83.80
9393;DHT22;4736;52.508;13.422;2023-10-08T01:25:41;11.10;84.00
9393;DHT22;4736;52.508;13.422;2023-10-08T01:28:44;11.20;84.20
9393;DHT22;4736;52.508;13.422;2023-10-08T01:31:48;11.20;84.20
9393;DHT22;4736;52.508;13.422;2023-10-08T01:34:51;11.20;84.30
9393;DHT22;4736;52.508;13.422;2023-10-08T01:37:56;11.20;84.10
9393;DHT22;4736;52.508;13.422;2023-10-08T01:41:01;11.10;84.20
9393;DHT22;4736;52.508;13.422;2023-10-08T01:44:12;11.10;84.20
9393;DHT22;4736;52.508;13.422;2023-10-08T01:47:15;11.10;84.20
9393;DHT22;4736;52.508;13.422;2023-10-08T01:50:19;11.10;83.90
9393;DHT22;4736;52.508;13.422;2023-10-08T01:53:25;11.10;84.00
9393;DHT22;4736;52.508;13.422;2023-10-08T01:56:29;11.10;84.00
9393;DHT22;4736;52.508;13.422;2023-10-08T01:59:32;11.10;84.00
9393;DHT22;4736;52.508;13.422;2023-10-08T02:02:36;11.10;84.00
9393;DHT22;4736;52.508;13.422;2023-10-08T02:05:39;11.10;84.10
9393;DHT22;4736;52.508;13.422;2023-10-08T02:08:45;11.10;84.30
9393;DHT22;4736;52.508;13.422;2023-10-08T02:11:49;11.00;84.30
9393;DHT22;4736;52.508;13.422;2023-10-08T02:14:53;11.00;84.50
9393;DHT22;4736;52.508;13.422;2023-10-08T02:17:56;11.00;84.60
9393;DHT22;4736;52.508;13.422;2023-10-08T02:21:00;11.00;84.50
9393;DHT22;4736;52.508;13.422;2023-10-08T02:24:06;11.10;84.50
9393;DHT22;4736;52.508;13.422;2023-10-08T02:27:10;11.00;84.60
9393;DHT22;4736;52.508;13.422;2023-10-08T02:30:16;11.00;84.60
9393;DHT22;4736;52.508;13.422;2023-10-08T02:33:20;11.10;84.80
9393;DHT22;4736;52.508;13.422;2023-10-08T02:36:26;11.00;84.80
9393;DHT22;4736;52.508;13.422;2023-10-08T02:39:31;11.00;85.00
9393;DHT22;4736;52.508;13.422;2023-10-08T02:42:34;11.10;85.00
9393;DHT22;4736;52.508;13.422;2023-10-08T02:45:37;11.00;84.50
9393;DHT22;4736;52.508;13.422;2023-10-08T02:48:41;11.10;84.60
9393;DHT22;4736;52.508;13.422;2023-10-08T02:51:44;11.10;84.70
9393;DHT22;4736;52.508;13.422;2023-10-08T02:54:48;11.10;84.70
9393;DHT22;4736;52.508;13.422;2023-10-08T02:57:54;11.10;84.60
9393;DHT22;4736;52.508;13.422;2023-10-08T03:01:00;11.10;84.70
9393;DHT22;4736;52.508;13.422;2023-10-08T03:04:03;11.10;84.60
9393;DHT22;4736;52.508;13.422;2023-10-08T03:07:17;11.00;84.50
9393;DHT22;4736;52.508;13.422;2023-10-08T03:10:26;11.10;84.50
9393;DHT22;4736;52.508;13.422;2023-10-08T03:13:35;11.00;84.10
9393;DHT22;4736;52.508;13.422;2023-10-08T03:16:40;11.00;84.20
9393;DHT22;4736;52.508;13.422;2023-10-08T03:19:44;11.00;84.30
9393;DHT22;4736;52.508;13.422;2023-10-08T03:22:47;11.00;84.00
9393;DHT22;4736;52.508;13.422;2023-10-08T03:25:56;11.00;84.00
9393;DHT22;4736;52.508;13.422;2023-10-08T03:29:03;11.00;84.20
9393;DHT22;4736;52.508;13.422;2023-10-08T03:32:13;11.00;84.30
9393;DHT22;4736;52.508;13.422;2023-10-08T03:35:17;11.00;84.10
9393;DHT22;4736;52.508;13.422;2023-10-08T03:38:29;10.90;84.00
9393;DHT22;4736;52.508;13.422;2023-10-08T03:41:47;11.00;84.00
9393;DHT22;4736;52.508;13.422;2023-10-08T03:45:01;10.90;83.90
9393;DHT22;4736;52.508;13.422;2023-10-08T03:48:14;11.00;83.90
9393;DHT22;4736;52.508;13.422;2023-10-08T03:51:18;10.90;83.60
9393;DHT22;4736;52.508;13.422;2023-10-08T03:54:23;10.90;83.60
9393;DHT22;4736;52.508;13.422;2023-10-08T03:57:33;10.90;83.90
9393;DHT22;4736;52.508;13.422;2023-10-08T04:00:46;10.90;84.00
9393;DHT22;4736;52.508;13.422;2023-10-08T04:03:49;10.90;84.00
9393;DHT22;4736;52.508;13.422;2023-10-08T04:07:01;10.90;84.20
9393;DHT22;4736;52.508;13.422;2023-10-08T04:10:18;10.90;84.10
9393;DHT22;4736;52.508;13.422;2023-10-08T04:13:36;10.90;83.90
9393;DHT22;4736;52.508;13.422;2023-10-08T04:16:46;10.80;83.80
9393;DHT22;4736;52.508;13.422;2023-10-08T04:19:53;10.80;83.70
9393;DHT22;4736;52.508;13.422;2023-10-08T04:23:00;10.80;83.80
9393;DHT22;4736;52.508;13.422;2023-10-08T04:26:03;10.80;83.50
9393;DHT22;4736;52.508;13.422;2023-10-08T04:29:10;10.70;83.40
9393;DHT22;4736;52.508;13.422;2023-10-08T04:32:18;10.70;83.40
9393;DHT22;4736;52.508;13.422;2023-10-08T04:35:27;10.70;83.60
9393;DHT22;4736;52.508;13.422;2023-10-08T04:38:30;10.70;83.70
9393;DHT22;4736;52.508;13.422;2023-10-08T04:41:41;10.70;83.60
9393;DHT22;4736;52.508;13.422;2023-10-08T04:44:47;10.70;83.60
9393;DHT22;4736;52.508;13.422;2023-10-08T04:47:51;10.70;83.70
9393;DHT22;4736;52.508;13.422;2023-10-08T04:50:54;10.70;83.70
9393;DHT22;4736;52.508;13.422;2023-10-08T04:54:01;10.70;83.60
9393;DHT22;4736;52.508;13.422;2023-10-08T04:57:07;10.70;83.60
9393;DHT22;4736;52.508;13.422;2023-10-08T05:00:18;10.70;83.60
9393;DHT22;4736;52.508;13.422;2023-10-08T05:03:43;10.60;83.60
9393;DHT22;4736;52.508;13.422;2023-10-08T05:07:07;10.50;83.70
9393;DHT22;4736;52.508;13.422;2023-10-08T05:10:43;10.50;83.80
9393;DHT22;4736;52.508;13.422;2023-10-08T05:14:04;10.40;84.00
9393;DHT22;4736;52.508;13.422;2023-10-08T05:17:19;10.40;84.10
9393;DHT22;4736;52.508;13.422;2023-10-08T05:20:25;10.40;84.00
9393;DHT22;4736;52.508;13.422;2023-10-08T05:24:00;10.30;84.00
9393;DHT22;4736;52.508;13.422;2023-10-08T05:27:15;10.30;84.10
9393;DHT22;4736;52.508;13.422;2023-10-08T05:30:39;10.20;84.10
9393;DHT22;4736;52.508;13.422;2023-10-08T05:33:57;10.20;84.20
9393;DHT22;4736;52.508;13.422;2023-10-08T05:37:16;10.20;84.30
9393;DHT22;4736;52.508;13.422;2023-10-08T05:40:34;10.20;84.50
9393;DHT22;4736;52.508;13.422;2023-10-08T05:44:06;10.20;84.60
9393;DHT22;4736;52.508;13.422;2023-10-08T05:47:26;10.20;84.70
9393;DHT22;4736;52.508;13.422;2023-10-08T05:50:41;10.20;84.70
9393;DHT22;4736;52.508;13.422;2023-10-08T05:54:16;10.20;84.60
9393;DHT22;4736;52.508;13.422;2023-10-08T05:57:37;10.20;84.60
9393;DHT22;4736;52.508;13.422;2023-10-08T06:00:48;10.20;84.70
9393;DHT22;4736;52.508;13.422;2023-10-08T06:04:11;10.30;84.70
9393;DHT22;4736;52.508;13.422;2023-10-08T06:07:47;10.40;84.70
9393;DHT22;4736;52.508;13.422;2023-10-08T06:10:50;10.40;84.30
9393;DHT22;4736;52.508;13.422;2023-10-08T06:14:03;10.40;84.30
9393;DHT22;4736;52.508;13.422;2023-10-08T06:17:15;10.40;84.20
9393;DHT22;4736;52.508;13.422;2023-10-08T06:20:37;10.40;84.00
9393;DHT22;4736;52.508;13.422;2023-10-08T06:23:46;10.40;83.90
9393;DHT22;4736;52.508;13.422;2023-10-08T06:26:50;10.50;84.20
9393;DHT22;4736;52.508;13.422;2023-10-08T06:29:53;10.60;84.40
9393;DHT22;4736;52.508;13.422;2023-10-08T06:32:57;10.80;84.10
9393;DHT22;4736;52.508;13.422;2023-10-08T06:36:05;11.00;83.70
9393;DHT22;4736;52.508;13.422;2023-10-08T06:39:16;11.00;83.20
9393;DHT22;4736;52.508;13.422;2023-10-08T06:42:20;11.10;83.10
9393;DHT22;4736;52.508;13.422;2023-10-08T06:45:29;11.10;82.30
9393;DHT22;4736;52.508;13.422;2023-10-08T06:48:34;11.10;81.80
9393;DHT22;4736;52.508;13.422;2023-10-08T06:51:38;11.10;80.90
9393;DHT22;4736;52.508;13.422;2023-10-08T06:54:44;11.10;79.80
9393;DHT22;4736;52.508;13.422;2023-10-08T06:57:48;11.20;79.50
9393;DHT22;4736;52.508;13.422;2023-10-08T07:00:52;11.30;78.70
9393;DHT22;4736;52.508;13.422;2023-10-08T07:03:57;11.30;77.20
9393;DHT22;4736;52.508;13.422;2023-10-08T07:07:06;11.20;77.20
9393;DHT22;4736;52.508;13.422;2023-10-08T07:10:12;11.20;76.70
9393;DHT22;4736;52.508;13.422;2023-10-08T07:13:18;11.10;76.80
9393;DHT22;4736;52.508;13.422;2023-10-08T07:16:23;11.10;76.10
9393;DHT22;4736;52.508;13.422;2023-10-08T07:19:29;11.10;76.50
9393;DHT22;4736;52.508;13.422;2023-10-08T07:22:39;11.10;76.50
9393;DHT22;4736;52.508;13.422;2023-10-08T07:25:52;11.20;73.90
9393;DHT22;4736;52.508;13.422;2023-10-08T07:29:03;11.20;74.00
9393;DHT22;4736;52.508;13.422;2023-10-08T07:32:10;11.10;74.50
9393;DHT22;4736;52.508;13.422;2023-10-08T07:35:13;11.20;74.80
9393;DHT22;4736;52.508;13.422;2023-10-08T07:38:26;11.20;74.90
9393;DHT22;4736;52.508;13.422;2023-10-08T07:41:32;11.30;75.00
9393;DHT22;4736;52.508;13.422;2023-10-08T07:44:35;11.30;73.90
9393;DHT22;4736;52.508;13.422;2023-10-08T07:47:41;11.40;74.10
9393;DHT22;4736;52.508;13.422;2023-10-08T07:50:45;11.40;73.20
9393;DHT22;4736;52.508;13.422;2023-10-08T07:53:49;11.40;73.00
9393;DHT22;4736;52.508;13.422;2023-10-08T07:56:57;11.40;72.90
9393;DHT22;4736;52.508;13.422;2023-10-08T08:00:12;11.50;72.40
9393;DHT22;4736;52.508;13.422;2023-10-08T08:03:25;11.70;71.80
9393;DHT22;4736;52.508;13.422;2023-10-08T08:06:28;11.70;71.90
9393;DHT22;4736;52.508;13.422;2023-10-08T08:09:33;11.70;72.50
9393;DHT22;4736;52.508;13.422;2023-10-08T08:12:41;11.80;72.60
9393;DHT22;4736;52.508;13.422;2023-10-08T08:15:44;11.90;72.70
9393;DHT22;4736;52.508;13.422;2023-10-08T08:19:00;11.90;72.50
9393;DHT22;4736;52.508;13.422;2023-10-08T08:22:03;12.00;70.80
9393;DHT22;4736;52.508;13.422;2023-10-08T08:25:06;11.90;70.30
9393;DHT22;4736;52.508;13.422;2023-10-08T08:28:19;12.00;70.20
9393;DHT22;4736;52.508;13.422;2023-10-08T08:31:23;12.10;67.20
9393;DHT22;4736;52.508;13.422;2023-10-08T08:34:27;12.10;67.90
9393;DHT22;4736;52.508;13.422;2023-10-08T08:37:30;12.30;68.70
9393;DHT22;4736;52.508;13.422;2023-10-08T08:40:34;12.40;69.40
9393;DHT22;4736;52.508;13.422;2023-10-08T08:43:39;12.50;68.80
9393;DHT22;4736;52.508;13.422;2023-10-08T08:46:46;12.50;65.10
9393;DHT22;4736;52.508;13.422;2023-10-08T08:49:51;12.50;65.20
9393;DHT22;4736;52.508;13.422;2023-10-08T08:52:57;12.70;64.50
9393;DHT22;4736;52.508;13.422;2023-10-08T08:56:01;12.80;64.90
9393;DHT22;4736;52.508;13.422;2023-10-08T08:59:08;12.80;64.50
9393;DHT22;4736;52.508;13.422;2023-10-08T09:02:13;12.90;63.10
9393;DHT22;4736;52.508;13.422;2023-10-08T09:05:19;13.10;61.30
9393;DHT22;4736;52.508;13.422;2023-10-08T09:08:33;13.10;61.50
9393;DHT22;4736;52.508;13.422;2023-10-08T09:11:38;13.10;62.00
9393;DHT22;4736;52.508;13.422;2023-10-08T09:14:44;13.10;61.80
9393;DHT22;4736;52.508;13.422;2023-10-08T09:17:50;13.10;61.20
9393;DHT22;4736;52.508;13.422;2023-10-08T09:20:53;13.10;60.50
9393;DHT22;4736;52.508;13.422;2023-10-08T09:23:57;13.00;61.80
9393;DHT22;4736;52.508;13.422;2023-10-08T09:27:00;13.10;62.30
9393;DHT22;4736;52.508;13.422;2023-10-08T09:30:16;13.30;62.80
9393;DHT22;4736;52.508;13.422;2023-10-08T09:33:21;13.50;58.80
9393;DHT22;4736;52.508;13.422;2023-10-08T09:36:25;13.50;59.50
9393;DHT22;4736;52.508;13.422;2023-10-08T09:39:33;13.70;59.80
9393;DHT22;4736;52.508;13.422;2023-10-08T09:42:37;13.80;59.60
9393;DHT22;4736;52.508;13.422;2023-10-08T09:45:43;13.80;60.10
9393;DHT22;4736;52.508;13.422;2023-10-08T09:48:50;13.90;59.70
9393;DHT22;4736;52.508;13.422;2023-10-08T09:51:55;13.90;57.50
9393;DHT22;4736;52.508;13.422;2023-10-08T09:55:00;14.00;57.00
9393;DHT22;4736;52.508;13.422;2023-10-08T09:58:06;14.10;56.00
9393;DHT22;4736;52.508;13.422;2023-10-08T10:01:12;14.20;54.80
9393;DHT22;4736;52.508;13.422;2023-10-08T10:04:23;14.20;53.90
9393;DHT22;4736;52.508;13.422;2023-10-08T10:07:27;14.40;54.20
9393;DHT22;4736;52.508;13.422;2023-10-08T10:10:32;14.40;52.00
9393;DHT22;4736;52.508;13.422;2023-10-08T10:13:42;14.50;52.00
9393;DHT22;4736;52.508;13.422;2023-10-08T10:17:08;14.60;52.60
9393;DHT22;4736;52.508;13.422;2023-10-08T10:20:17;14.70;51.50
9393;DHT22;4736;52.508;13.422;2023-10-08T10:23:37;14.50;51.30
9393;DHT22;4736;52.508;13.422;2023-10-08T10:26:42;14.60;51.80
9393;DHT22;4736;52.508;13.422;2023-10-08T10:29:49;14.80;52.40
9393;DHT22;4736;52.508;13.422;2023-10-08T10:32:59;15.10;48.40
9393;DHT22;4736;52.508;13.422;2023-10-08T10:36:05;15.20;47.70
9393;DHT22;4736;52.508;13.422;2023-10-08T10:39:10;15.30;47.70
9393;DHT22;4736;52.508;13.422;2023-10-08T10:42:18;15.40;48.00
9393;DHT22;4736;52.508;13.422;2023-10-08T10:45:28;15.50;48.80
9393;DHT22;4736;52.508;13.422;2023-10-08T10:48:46;15.40;50.40
9393;DHT22;4736;52.508;13.422;2023-10-08T10:52:06;14.90;47.20
9393;DHT22;4736;52.508;13.422;2023-10-08T10:55:14;14.60;49.40
9393;DHT22;4736;52.508;13.422;2023-10-08T10:58:34;14.30;49.10
9393;DHT22;4736;52.508;13.422;2023-10-08T11:01:40;14.60;46.60
9393;DHT22;4736;52.508;13.422;2023-10-08T11:04:56;14.90;47.10
9393;DHT22;4736;52.508;13.422;2023-10-08T11:08:09;15.20;46.40
9393;DHT22;4736;52.508;13.422;2023-10-08T11:11:17;15.30;48.10
9393;DHT22;4736;52.508;13.422;2023-10-08T11:14:21;15.30;47.60
9393;DHT22;4736;52.508;13.422;2023-10-08T11:17:25;15.30;48.30
9393;DHT22;4736;52.508;13.422;2023-10-08T11:20:32;15.30;48.00
9393;DHT22;4736;52.508;13.422;2023-10-08T11:23:42;15.60;47.70
9393;DHT22;4736;52.508;13.422;2023-10-08T11:26:49;15.80;47.10
9393;DHT22;4736;52.508;13.422;2023-10-08T11:30:05;15.80;47.00
9393;DHT22;4736;52.508;13.422;2023-10-08T11:33:13;15.80;46.50
9393;DHT22;4736;52.508;13.422;2023-10-08T11:36:20;15.60;46.40
9393;DHT22;4736;52.508;13.422;2023-10-08T11:39:39;15.40;46.30
9393;DHT22;4736;52.508;13.422;2023-10-08T11:42:47;15.50;47.30
9393;DHT22;4736;52.508;13.422;2023-10-08T11:45:52;15.60;46.50
9393;DHT22;4736;52.508;13.422;2023-10-08T11:48:56;15.80;47.30
9393;DHT22;4736;52.508;13.422;2023-10-08T11:52:06;15.80;47.90
9393;DHT22;4736;52.508;13.422;2023-10-08T11:55:13;16.00;49.00
9393;DHT22;4736;52.508;13.422;2023-10-08T11:58:21;16.20;46.80
9393;DHT22;4736;52.508;13.422;2023-10-08T12:01:38;16.40;45.50
9393;DHT22;4736;52.508;13.422;2023-10-08T12:04:44;16.50;45.80
9393;DHT22;4736;52.508;13.422;2023-10-08T12:07:52;16.40;45.40
9393;DHT22;4736;52.508;13.422;2023-10-08T12:10:59;16.50;46.80
9393;DHT22;4736;52.508;13.422;2023-10-08T12:14:04;16.80;45.80
9393;DHT22;4736;52.508;13.422;2023-10-08T12:17:07;16.90;44.50
9393;DHT22;4736;52.508;13.422;2023-10-08T12:20:13;16.90;44.10
9393;DHT22;4736;52.508;13.422;2023-10-08T12:23:27;16.80;44.60
9393;DHT22;4736;52.508;13.422;2023-10-08T12:26:35;16.30;45.50
9393;DHT22;4736;52.508;13.422;2023-10-08T12:29:38;16.30;46.60
9393;DHT22;4736;52.508;13.422;2023-10-08T12:32:41;16.40;47.30
9393;DHT22;4736;52.508;13.422;2023-10-08T12:35:48;16.40;47.30
9393;DHT22;4736;52.508;13.422;2023-10-08T12:38:53;16.40;46.40
9393;DHT22;4736;52.508;13.422;2023-10-08T12:42:00;16.30;45.00
9393;DHT22;4736;52.508;13.422;2023-10-08T12:45:07;16.10;45.70
9393;DHT22;4736;52.508;13.422;2023-10-08T12:48:14;16.20;45.30
9393;DHT22;4736;52.508;13.422;2023-10-08T12:51:17;16.00;46.10
9393;DHT22;4736;52.508;13.422;2023-10-08T12:54:26;16.20;47.50
9393;DHT22;4736;52.508;13.422;2023-10-08T12:57:35;16.50;46.40
9393;DHT22;4736;52.508;13.422;2023-10-08T13:00:39;16.60;46.70
9393;DHT22;4736;52.508;13.422;2023-10-08T13:03:44;16.70;46.00
9393;DHT22;4736;52.508;13.422;2023-10-08T13:06:50;16.80;46.50
9393;DHT22;4736;52.508;13.422;2023-10-08T13:09:55;16.50;45.20
9393;DHT22;4736;52.508;13.422;2023-10-08T13:12:59;16.50;46.50
9393;DHT22;4736;52.508;13.422;2023-10-08T13:16:03;16.40;46.50
9393;DHT22;4736;52.508;13.422;2023-10-08T13:19:09;16.40;46.30
9393;DHT22;4736;52.508;13.422;2023-10-08T13:22:12;16.50;46.70
9393;DHT22;4736;52.508;13.422;2023-10-08T13:25:23;16.80;47.00
9393;DHT22;4736;52.508;13.422;2023-10-08T13:28:28;16.90;45.90
9393;DHT22;4736;52.508;13.422;2023-10-08T13:31:31;16.90;46.30
9393;DHT22;4736;52.508;13.422;2023-10-08T13:34:38;17.00;47.20
9393;DHT22;4736;52.508;13.422;2023-10-08T13:37:41;17.20;47.20
9393;DHT22;4736;52.508;13.422;2023-10-08T13:40:46;17.10;46.30
9393;DHT22;4736;52.508;13.422;2023-10-08T13:44:04;17.20;45.70
9393;DHT22;4736;52.508;13.422;2023-10-08T13:47:08;17.20;47.70
9393;DHT22;4736;52.508;13.422;2023-10-08T13:50:16;17.10;46.30
9393;DHT22;4736;52.508;13.422;2023-10-08T13:53:20;16.90;46.80
9393;DHT22;4736;52.508;13.422;2023-10-08T13:56:25;16.40;46.70
9393;DHT22;4736;52.508;13.422;2023-10-08T13:59:28;16.00;47.10
9393;DHT22;4736;52.508;13.422;2023-10-08T14:02:34;15.60;47.80
9393;DHT22;4736;52.508;13.422;2023-10-08T14:05:39;15.60;47.70
9393;DHT22;4736;52.508;13.422;2023-10-08T14:08:43;15.50;47.60
9393;DHT22;4736;52.508;13.422;2023-10-08T14:11:54;15.60;47.80
9393;DHT22;4736;52.508;13.422;2023-10-08T14:14:57;15.60;49.30
9393;DHT22;4736;52.508;13.422;2023-10-08T14:18:01;15.70;49.70
9393;DHT22;4736;52.508;13.422;2023-10-08T14:21:10;15.60;49.60
9393;DHT22;4736;52.508;13.422;2023-10-08T14:24:13;15.50;49.90
9393;DHT22;4736;52.508;13.422;2023-10-08T14:27:18;15.30;47.50
9393;DHT22;4736;52.508;13.422;2023-10-08T14:30:27;15.10;47.90
9393;DHT22;4736;52.508;13.422;2023-10-08T14:33:31;15.10;48.10
9393;DHT22;4736;52.508;13.422;2023-10-08T14:36:44;15.20;48.50
9393;DHT22;4736;52.508;13.422;2023-10-08T14:40:07;15.10;48.70
9393;DHT22;4736;52.508;13.422;2023-10-08T14:43:30;15.00;49.10
9393;DHT22;4736;52.508;13.422;2023-10-08T14:46:37;15.00;48.70
9393;DHT22;4736;52.508;13.422;2023-10-08T14:49:42;15.00;49.20
9393;DHT22;4736;52.508;13.422;2023-10-08T14:52:48;14.90;49.60
9393;DHT22;4736;52.508;13.422;2023-10-08T14:56:16;14.80;48.60
9393;DHT22;4736;52.508;13.422;2023-10-08T14:59:21;14.60;48.20
9393;DHT22;4736;52.508;13.422;2023-10-08T15:02:26;14.60;48.50
9393;DHT22;4736;52.508;13.422;2023-10-08T15:05:31;14.50;49.50
9393;DHT22;4736;52.508;13.422;2023-10-08T15:08:34;14.40;49.50
9393;DHT22;4736;52.508;13.422;2023-10-08T15:11:37;14.40;49.70
9393;DHT22;4736;52.508;13.422;2023-10-08T15:14:42;14.20;49.10
9393;DHT22;4736;52.508;13.422;2023-10-08T15:17:46;14.20;49.60
9393;DHT22;4736;52.508;13.422;2023-10-08T15:20:51;14.10;49.00
9393;DHT22;4736;52.508;13.422;2023-10-08T15:23:55;14.00;50.10
9393;DHT22;4736;52.508;13.422;2023-10-08T15:26:58;14.10;50.80
9393;DHT22;4736;52.508;13.422;2023-10-08T15:30:04;14.00;51.50
9393;DHT22;4736;52.508;13.422;2023-10-08T15:33:07;13.90;49.90
9393;DHT22;4736;52.508;13.422;2023-10-08T15:36:10;13.90;50.30
9393;DHT22;4736;52.508;13.422;2023-10-08T15:39:14;13.90;50.50
9393;DHT22;4736;52.508;13.422;2023-10-08T15:42:26;13.90;50.70
9393;DHT22;4736;52.508;13.422;2023-10-08T15:45:32;13.90;51.20
9393;DHT22;4736;52.508;13.422;2023-10-08T15:48:35;13.90;51.50
9393;DHT22;4736;52.508;13.422;2023-10-08T15:51:39;13.90;52.30
9393;DHT22;4736;52.508;13.422;2023-10-08T15:54:42;13.70;51.20
9393;DHT22;4736;52.508;13.422;2023-10-08T15:57:46;13.70;51.50
9393;DHT22;4736;52.508;13.422;2023-10-08T16:00:50;13.60;51.60
9393;DHT22;4736;52.508;13.422;2023-10-08T16:03:55;13.60;52.10
9393;DHT22;4736;52.508;13.422;2023-10-08T16:07:00;13.60;52.80
9393;DHT22;4736;52.508;13.422;2023-10-08T16:10:06;13.50;53.70
9393;DHT22;4736;52.508;13.422;2023-10-08T16:13:10;13.50;52.00
9393;DHT22;4736;52.508;13.422;2023-10-08T16:16:14;13.50;52.00
9393;DHT22;4736;52.508;13.422;2023-10-08T16:19:17;13.40;52.70
9393;DHT22;4736;52.508;13.422;2023-10-08T16:22:21;13.30;53.00
9393;DHT22;4736;52.508;13.422;2023-10-08T16:25:24;13.30;54.00
9393;DHT22;4736;52.508;13.422;2023-10-08T16:28:28;13.30;54.80
9393;DHT22;4736;52.508;13.422;2023-10-08T16:31:33;13.10;54.20
9393;DHT22;4736;52.508;13.422;2023-10-08T16:34:42;13.10;54.90
9393;DHT22;4736;52.508;13.422;2023-10-08T16:37:45;13.10;55.90
9393;DHT22;4736;52.508;13.422;2023-10-08T16:40:48;13.00;56.20
9393;DHT22;4736;52.508;13.422;2023-10-08T16:43:52;12.90;57.10
9393;DHT22;4736;52.508;13.422;2023-10-08T16:46:56;12.80;57.10
9393;DHT22;4736;52.508;13.422;2023-10-08T16:50:00;12.80;57.80
9393;DHT22;4736;52.508;13.422;2023-10-08T16:53:03;12.80;58.70
9393;DHT22;4736;52.508;13.422;2023-10-08T16:56:06;12.70;59.20
9393;DHT22;4736;52.508;13.422;2023-10-08T16:59:09;12.60;59.30
9393;DHT22;4736;52.508;13.422;2023-10-08T17:02:19;12.60;59.70
9393;DHT22;4736;52.508;13.422;2023-10-08T17:05:22;12.50;60.10
9393;DHT22;4736;52.508;13.422;2023-10-08T17:08:25;12.50;60.40
9393;DHT22;4736;52.508;13.422;2023-10-08T17:11:29;12.50;60.10
9393;DHT22;4736;52.508;13.422;2023-10-08T17:14:36;12.50;60.50
9393;DHT22;4736;52.508;13.422;2023-10-08T17:17:41;12.50;61.00
9393;DHT22;4736;52.508;13.422;2023-10-08T17:20:44;12.50;61.30
9393;DHT22;4736;52.508;13.422;2023-10-08T17:23:49;12.40;61.40
9393;DHT22;4736;52.508;13.422;2023-10-08T17:26:53;12.30;61.80
9393;DHT22;4736;52.508;13.422;2023-10-08T17:30:16;12.30;62.10
9393;DHT22;4736;52.508;13.422;2023-10-08T17:33:23;12.30;62.00
9393;DHT22;4736;52.508;13.422;2023-10-08T17:36:30;12.30;62.20
9393;DHT22;4736;52.508;13.422;2023-10-08T17:39:34;12.30;62.30
9393;DHT22;4736;52.508;13.422;2023-10-08T17:42:37;12.20;62.50
9393;DHT22;4736;52.508;13.422;2023-10-08T17:45:40;12.20;62.50
9393;DHT22;4736;52.508;13.422;2023-10-08T17:48:50;12.20;62.50
9393;DHT22;4736;52.508;13.422;2023-10-08T17:51:55;12.20;62.30
9393;DHT22;4736;52.508;13.422;2023-10-08T17:54:58;12.20;62.10
9393;DHT22;4736;52.508;13.422;2023-10-08T17:58:01;12.20;62.10
9393;DHT22;4736;52.508;13.422;2023-10-08T18:01:08;12.20;62.10
9393;DHT22;4736;52.508;13.422;2023-10-08T18:04:17;12.20;61.40
9393;DHT22;4736;52.508;13.422;2023-10-08T18:07:25;12.20;61.20
9393;DHT22;4736;52.508;13.422;2023-10-08T18:10:29;12.20;61.70
9393;DHT22;4736;52.508;13.422;2023-10-08T18:13:36;12.20;61.70
9393;DHT22;4736;52.508;13.422;2023-10-08T18:16:43;12.10;61.70
9393;DHT22;4736;52.508;13.422;2023-10-08T18:19:47;12.10;62.10
9393;DHT22;4736;52.508;13.422;2023-10-08T18:22:51;12.10;62.30
9393;DHT22;4736;52.508;13.422;2023-10-08T18:25:55;12.10;62.50
9393;DHT22;4736;52.508;13.422;2023-10-08T18:28:58;12.10;62.80
9393;DHT22;4736;52.508;13.422;2023-10-08T18:32:02;12.00;62.80
9393;DHT22;4736;52.508;13.422;2023-10-08T18:35:09;12.00;62.60
9393;DHT22;4736;52.508;13.422;2023-10-08T18:38:14;12.00;62.20
9393;DHT22;4736;52.508;13.422;2023-10-08T18:41:19;11.90;62.40
9393;DHT22;4736;52.508;13.422;2023-10-08T18:44:25;11.90;60.30
9393;DHT22;4736;52.508;13.422;2023-10-08T18:47:29;12.00;60.40
9393;DHT22;4736;52.508;13.422;2023-10-08T18:50:36;11.90;60.50
9393;DHT22;4736;52.508;13.422;2023-10-08T18:53:41;11.90;59.40
9393;DHT22;4736;52.508;13.422;2023-10-08T18:56:45;11.90;59.40
9393;DHT22;4736;52.508;13.422;2023-10-08T18:59:49;11.90;59.60
9393;DHT22;4736;52.508;13.422;2023-10-08T19:02:54;11.90;59.70
9393;DHT22;4736;52.508;13.422;2023-10-08T19:05:59;11.90;60.00
9393;DHT22;4736;52.508;13.422;2023-10-08T19:09:05;11.90;60.40
9393;DHT22;4736;52.508;13.422;2023-10-08T19:12:12;11.90;60.30
9393;DHT22;4736;52.508;13.422;2023-10-08T19:15:19;11.90;60.50
9393;DHT22;4736;52.508;13.422;2023-10-08T19:18:24;11.90;60.60
9393;DHT22;4736;52.508;13.422;2023-10-08T19:21:30;11.90;60.90
9393;DHT22;4736;52.508;13.422;2023-10-08T19:24:34;11.90;60.30
9393;DHT22;4736;52.508;13.422;2023-10-08T19:27:38;11.90;60.40
9393;DHT22;4736;52.508;13.422;2023-10-08T19:30:41;11.90;60.40
9393;DHT22;4736;52.508;13.422;2023-10-08T19:33:45;11.80;60.50
9393;DHT22;4736;52.508;13.422;2023-10-08T19:36:50;11.70;60.90
9393;DHT22;4736;52.508;13.422;2023-10-08T19:39:53;11.70;61.10
9393;DHT22;4736;52.508;13.422;2023-10-08T19:42:57;11.70;61.30
9393;DHT22;4736;52.508;13.422;2023-10-08T19:46:00;11.70;61.20
9393;DHT22;4736;52.508;13.422;2023-10-08T19:49:04;11.70;61.60
9393;DHT22;4736;52.508;13.422;2023-10-08T19:52:12;11.60;62.10
9393;DHT22;4736;52.508;13.422;2023-10-08T19:55:16;11.50;62.60
9393;DHT22;4736;52.508;13.422;2023-10-08T19:58:19;11.50;63.10
9393;DHT22;4736;52.508;13.422;2023-10-08T20:01:23;11.40;63.60